sensor_id;sensor_type;location;lat;lon;timestamp;P1;durP1;ratioP1;P2;durP2;ratioP2
66521;SDS011;53349;53.538;8.584;2023-02-14T00:01:59;39.77;;;13.43;;
66521;SDS011;53349;53.538;8.584;2023-02-14T00:04:25;41.20;;;12.90;;
66521;SDS011;53349;53.538;8.584;2023-02-14T00:06:50;39.27;;;12.43;;
66521;SDS011;53349;53.538;8.584;2023-02-14T00:09:16;43.10;;;12.90;;
66521;SDS011;53349;53.538;8.584;2023-02-14T00:11:44;39.30;;;12.35;;
66521;SDS011;53349;53.538;8.584;2023-02-14T00:14:11;35.72;;;12.30;;
66521;SDS011;53349;53.538;8.584;2023-02-14T00:16:39;39.60;;;13.55;;
66521;SDS011;53349;53.538;8.584;2023-02-14T00:19:05;36.57;;;12.40;;
66521;SDS011;53349;53.538;8.584;2023-02-14T00:21:39;39.50;;;13.13;;
66521;SDS011;53349;53.538;8.584;2023-02-14T00:24:12;43.30;;;13.43;;
66521;SDS011;53349;53.538;8.584;2023-02-14T00:26:40;39.50;;;13.07;;
66521;SDS011;53349;53.538;8.584;2023-02-14T00:29:07;38.88;;;13.00;;
66521;SDS011;53349;53.538;8.584;2023-02-14T00:31:37;39.75;;;12.68;;
66521;SDS011;53349;53.538;8.584;2023-02-14T00:34:08;39.45;;;12.43;;
66521;SDS011;53349;53.538;8.584;2023-02-14T00:36:35;37.00;;;11.67;;
66521;SDS011;53349;53.538;8.584;2023-02-14T00:39:04;41.40;;;12.48;;
66521;SDS011;53349;53.538;8.584;2023-02-14T00:41:31;37.55;;;12.90;;
66521;SDS011;53349;53.538;8.584;2023-02-14T00:43:58;41.63;;;12.75;;
66521;SDS011;53349;53.538;8.584;2023-02-14T00:46:24;54.27;;;15.30;;
66521;SDS011;53349;53.538;8.584;2023-02-14T00:48:52;39.85;;;13.15;;
66521;SDS011;53349;53.538;8.584;2023-02-14T00:51:20;36.28;;;12.20;;
66521;SDS011;53349;53.538;8.584;2023-02-14T00:53:46;36.28;;;12.32;;
66521;SDS011;53349;53.538;8.584;2023-02-14T00:56:14;37.57;;;12.80;;
66521;SDS011;53349;53.538;8.584;2023-02-14T00:58:40;42.47;;;12.95;;
66521;SDS011;53349;53.538;8.584;2023-02-14T01:01:06;37.28;;;12.50;;
66521;SDS011;53349;53.538;8.584;2023-02-14T01:03:33;36.33;;;11.80;;
66521;SDS011;53349;53.538;8.584;2023-02-14T01:06:02;38.85;;;12.93;;
66521;SDS011;53349;53.538;8.584;2023-02-14T01:08:28;41.92;;;13.05;;
66521;SDS011;53349;53.538;8.584;2023-02-14T01:10:56;39.22;;;12.70;;
66521;SDS011;53349;53.538;8.584;2023-02-14T01:13:23;40.60;;;12.93;;
66521;SDS011;53349;53.538;8.584;2023-02-14T01:15:50;34.92;;;12.20;;
66521;SDS011;53349;53.538;8.584;2023-02-14T01:18:17;40.88;;;13.05;;
66521;SDS011;53349;53.538;8.584;2023-02-14T01:20:44;39.47;;;12.43;;
66521;SDS011;53349;53.538;8.584;2023-02-14T01:23:11;37.55;;;11.90;;
66521;SDS011;53349;53.538;8.584;2023-02-14T01:25:36;40.33;;;12.87;;
66521;SDS011;53349;53.538;8.584;2023-02-14T01:28:03;40.95;;;13.77;;
66521;SDS011;53349;53.538;8.584;2023-02-14T01:30:31;38.47;;;12.10;;
66521;SDS011;53349;53.538;8.584;2023-02-14T01:33:01;40.22;;;13.20;;
66521;SDS011;53349;53.538;8.584;2023-02-14T01:35:27;39.73;;;12.43;;
66521;SDS011;53349;53.538;8.584;2023-02-14T01:37:53;40.00;;;12.52;;
66521;SDS011;53349;53.538;8.584;2023-02-14T01:40:18;42.80;;;13.03;;
66521;SDS011;53349;53.538;8.584;2023-02-14T01:42:44;39.67;;;13.03;;
66521;SDS011;53349;53.538;8.584;2023-02-14T01:45:16;41.20;;;13.33;;
66521;SDS011;53349;53.538;8.584;2023-02-14T01:47:47;44.70;;;13.18;;
66521;SDS011;53349;53.538;8.584;2023-02-14T01:50:27;42.33;;;12.38;;
66521;SDS011;53349;53.538;8.584;2023-02-14T01:53:01;38.75;;;12.70;;
66521;SDS011;53349;53.538;8.584;2023-02-14T01:55:41;39.90;;;13.23;;
66521;SDS011;53349;53.538;8.584;2023-02-14T01:58:14;42.03;;;13.20;;
66521;SDS011;53349;53.538;8.584;2023-02-14T02:00:46;42.72;;;13.57;;
66521;SDS011;53349;53.538;8.584;2023-02-14T02:03:12;40.78;;;12.82;;
66521;SDS011;53349;53.538;8.584;2023-02-14T02:05:39;44.13;;;13.63;;
66521;SDS011;53349;53.538;8.584;2023-02-14T02:08:12;38.40;;;12.60;;
66521;SDS011;53349;53.538;8.584;2023-02-14T02:10:38;40.50;;;12.40;;
66521;SDS011;53349;53.538;8.584;2023-02-14T02:13:04;39.33;;;13.25;;
66521;SDS011;53349;53.538;8.584;2023-02-14T02:15:34;41.10;;;13.63;;
66521;SDS011;53349;53.538;8.584;2023-02-14T02:18:10;46.50;;;14.18;;
66521;SDS011;53349;53.538;8.584;2023-02-14T02:23:56;46.15;;;13.77;;
66521;SDS011;53349;53.538;8.584;2023-02-14T02:40:51;46.05;;;14.15;;
66521;SDS011;53349;53.538;8.584;2023-02-14T02:51:43;42.00;;;13.50;;
66521;SDS011;53349;53.538;8.584;2023-02-14T02:54:16;42.10;;;13.02;;
66521;SDS011;53349;53.538;8.584;2023-02-14T02:56:48;39.10;;;13.83;;
66521;SDS011;53349;53.538;8.584;2023-02-14T02:59:18;41.85;;;13.55;;
66521;SDS011;53349;53.538;8.584;2023-02-14T03:01:49;39.95;;;13.05;;
66521;SDS011;53349;53.538;8.584;2023-02-14T03:04:19;44.72;;;14.43;;
66521;SDS011;53349;53.538;8.584;2023-02-14T03:06:46;44.63;;;14.50;;
66521;SDS011;53349;53.538;8.584;2023-02-14T03:11:52;37.40;;;12.63;;
66521;SDS011;53349;53.538;8.584;2023-02-14T03:14:20;43.92;;;14.05;;
66521;SDS011;53349;53.538;8.584;2023-02-14T03:17:29;38.90;;;13.93;;
66521;SDS011;53349;53.538;8.584;2023-02-14T03:20:05;44.35;;;13.45;;
66521;SDS011;53349;53.538;8.584;2023-02-14T03:22:52;43.00;;;13.77;;
66521;SDS011;53349;53.538;8.584;2023-02-14T03:28:31;46.97;;;13.65;;
66521;SDS011;53349;53.538;8.584;2023-02-14T03:31:22;45.88;;;14.02;;
66521;SDS011;53349;53.538;8.584;2023-02-14T03:34:14;40.35;;;13.63;;
66521;SDS011;53349;53.538;8.584;2023-02-14T03:41:51;46.08;;;13.32;;
66521;SDS011;53349;53.538;8.584;2023-02-14T03:44:22;45.72;;;14.38;;
66521;SDS011;53349;53.538;8.584;2023-02-14T03:46:51;42.78;;;14.02;;
66521;SDS011;53349;53.538;8.584;2023-02-14T03:49:22;43.00;;;13.90;;
66521;SDS011;53349;53.538;8.584;2023-02-14T03:51:55;42.97;;;14.30;;
66521;SDS011;53349;53.538;8.584;2023-02-14T03:54:23;47.05;;;14.90;;
66521;SDS011;53349;53.538;8.584;2023-02-14T03:56:52;46.67;;;14.20;;
66521;SDS011;53349;53.538;8.584;2023-02-14T03:59:27;43.60;;;13.38;;
66521;SDS011;53349;53.538;8.584;2023-02-14T04:04:26;42.83;;;13.32;;
66521;SDS011;53349;53.538;8.584;2023-02-14T04:06:55;48.88;;;15.18;;
66521;SDS011;53349;53.538;8.584;2023-02-14T04:09:20;47.03;;;13.93;;
66521;SDS011;53349;53.538;8.584;2023-02-14T04:11:46;43.90;;;13.38;;
66521;SDS011;53349;53.538;8.584;2023-02-14T04:14:12;40.70;;;13.27;;
66521;SDS011;53349;53.538;8.584;2023-02-14T04:16:37;41.88;;;14.00;;
66521;SDS011;53349;53.538;8.584;2023-02-14T04:19:03;44.63;;;14.23;;
66521;SDS011;53349;53.538;8.584;2023-02-14T04:21:30;43.37;;;14.00;;
66521;SDS011;53349;53.538;8.584;2023-02-14T04:23:55;43.80;;;14.60;;
66521;SDS011;53349;53.538;8.584;2023-02-14T04:26:22;43.88;;;14.57;;
66521;SDS011;53349;53.538;8.584;2023-02-14T04:28:47;46.93;;;14.27;;
66521;SDS011;53349;53.538;8.584;2023-02-14T04:31:13;48.13;;;13.60;;
66521;SDS011;53349;53.538;8.584;2023-02-14T04:33:41;45.47;;;13.20;;
66521;SDS011;53349;53.538;8.584;2023-02-14T04:36:08;43.25;;;13.55;;
66521;SDS011;53349;53.538;8.584;2023-02-14T04:38:35;47.08;;;14.00;;
66521;SDS011;53349;53.538;8.584;2023-02-14T04:41:00;48.90;;;14.53;;
66521;SDS011;53349;53.538;8.584;2023-02-14T04:43:26;45.80;;;15.98;;
66521;SDS011;53349;53.538;8.584;2023-02-14T04:45:51;50.50;;;15.80;;
66521;SDS011;53349;53.538;8.584;2023-02-14T04:48:16;47.63;;;14.43;;
66521;SDS011;53349;53.538;8.584;2023-02-14T04:50:42;49.70;;;15.37;;
66521;SDS011;53349;53.538;8.584;2023-02-14T04:53:07;49.67;;;15.13;;
66521;SDS011;53349;53.538;8.584;2023-02-14T04:55:36;46.47;;;14.30;;
66521;SDS011;53349;53.538;8.584;2023-02-14T04:58:02;48.55;;;15.13;;
66521;SDS011;53349;53.538;8.584;2023-02-14T05:00:28;51.60;;;15.23;;
66521;SDS011;53349;53.538;8.584;2023-02-14T05:02:53;46.03;;;13.90;;
66521;SDS011;53349;53.538;8.584;2023-02-14T05:05:19;50.28;;;15.32;;
66521;SDS011;53349;53.538;8.584;2023-02-14T05:07:46;56.00;;;16.50;;
66521;SDS011;53349;53.538;8.584;2023-02-14T05:10:11;49.83;;;14.65;;
66521;SDS011;53349;53.538;8.584;2023-02-14T05:12:37;50.50;;;14.60;;
66521;SDS011;53349;53.538;8.584;2023-02-14T05:15:04;50.35;;;15.20;;
66521;SDS011;53349;53.538;8.584;2023-02-14T05:17:29;47.75;;;14.40;;
66521;SDS011;53349;53.538;8.584;2023-02-14T05:19:56;47.03;;;15.82;;
66521;SDS011;53349;53.538;8.584;2023-02-14T05:22:23;50.53;;;15.47;;
66521;SDS011;53349;53.538;8.584;2023-02-14T05:24:49;47.38;;;14.57;;
66521;SDS011;53349;53.538;8.584;2023-02-14T05:27:15;50.72;;;16.27;;
66521;SDS011;53349;53.538;8.584;2023-02-14T05:29:43;44.13;;;14.10;;
66521;SDS011;53349;53.538;8.584;2023-02-14T05:32:11;50.45;;;14.88;;
66521;SDS011;53349;53.538;8.584;2023-02-14T05:34:37;49.40;;;14.95;;
66521;SDS011;53349;53.538;8.584;2023-02-14T05:37:02;53.27;;;16.00;;
66521;SDS011;53349;53.538;8.584;2023-02-14T05:39:28;55.10;;;17.60;;
66521;SDS011;53349;53.538;8.584;2023-02-14T05:41:54;55.87;;;16.03;;
66521;SDS011;53349;53.538;8.584;2023-02-14T05:44:22;52.10;;;15.40;;
66521;SDS011;53349;53.538;8.584;2023-02-14T05:46:47;47.50;;;15.03;;
66521;SDS011;53349;53.538;8.584;2023-02-14T05:49:16;50.00;;;14.45;;
66521;SDS011;53349;53.538;8.584;2023-02-14T05:51:43;51.63;;;15.25;;
66521;SDS011;53349;53.538;8.584;2023-02-14T05:54:08;53.90;;;15.53;;
66521;SDS011;53349;53.538;8.584;2023-02-14T05:56:34;50.33;;;14.63;;
66521;SDS011;53349;53.538;8.584;2023-02-14T05:59:03;51.10;;;15.70;;
66521;SDS011;53349;53.538;8.584;2023-02-14T06:01:28;47.90;;;14.50;;
66521;SDS011;53349;53.538;8.584;2023-02-14T06:03:53;44.77;;;15.40;;
66521;SDS011;53349;53.538;8.584;2023-02-14T06:06:19;52.00;;;15.10;;
66521;SDS011;53349;53.538;8.584;2023-02-14T06:08:44;49.33;;;15.57;;
66521;SDS011;53349;53.538;8.584;2023-02-14T06:11:10;54.92;;;15.95;;
66521;SDS011;53349;53.538;8.584;2023-02-14T06:13:35;49.03;;;16.13;;
66521;SDS011;53349;53.538;8.584;2023-02-14T06:16:02;47.00;;;14.63;;
66521;SDS011;53349;53.538;8.584;2023-02-14T06:18:31;47.75;;;15.35;;
66521;SDS011;53349;53.538;8.584;2023-02-14T06:20:56;48.93;;;15.33;;
66521;SDS011;53349;53.538;8.584;2023-02-14T06:23:24;53.45;;;15.25;;
66521;SDS011;53349;53.538;8.584;2023-02-14T06:25:51;46.83;;;14.38;;
66521;SDS011;53349;53.538;8.584;2023-02-14T06:28:16;47.03;;;14.13;;
66521;SDS011;53349;53.538;8.584;2023-02-14T06:30:42;46.28;;;14.18;;
66521;SDS011;53349;53.538;8.584;2023-02-14T06:33:08;46.38;;;15.30;;
66521;SDS011;53349;53.538;8.584;2023-02-14T06:35:33;49.90;;;15.37;;
66521;SDS011;53349;53.538;8.584;2023-02-14T06:37:59;46.65;;;13.98;;
66521;SDS011;53349;53.538;8.584;2023-02-14T06:40:27;48.47;;;15.50;;
66521;SDS011;53349;53.538;8.584;2023-02-14T06:42:53;48.67;;;14.37;;
66521;SDS011;53349;53.538;8.584;2023-02-14T06:45:19;47.57;;;15.30;;
66521;SDS011;53349;53.538;8.584;2023-02-14T06:47:45;47.08;;;14.70;;
66521;SDS011;53349;53.538;8.584;2023-02-14T06:50:10;45.77;;;14.87;;
66521;SDS011;53349;53.538;8.584;2023-02-14T06:52:37;52.40;;;16.23;;
66521;SDS011;53349;53.538;8.584;2023-02-14T06:55:02;47.95;;;13.68;;
66521;SDS011;53349;53.538;8.584;2023-02-14T06:57:28;54.77;;;14.80;;
66521;SDS011;53349;53.538;8.584;2023-02-14T06:59:54;49.85;;;15.38;;
66521;SDS011;53349;53.538;8.584;2023-02-14T07:02:20;53.07;;;15.93;;
66521;SDS011;53349;53.538;8.584;2023-02-14T07:04:46;49.95;;;14.00;;
66521;SDS011;53349;53.538;8.584;2023-02-14T07:07:11;46.27;;;14.23;;
66521;SDS011;53349;53.538;8.584;2023-02-14T07:09:38;49.70;;;15.55;;
66521;SDS011;53349;53.538;8.584;2023-02-14T07:12:06;51.53;;;14.60;;
66521;SDS011;53349;53.538;8.584;2023-02-14T07:14:33;49.47;;;14.27;;
66521;SDS011;53349;53.538;8.584;2023-02-14T07:16:58;46.22;;;14.38;;
66521;SDS011;53349;53.538;8.584;2023-02-14T07:19:27;48.07;;;13.97;;
66521;SDS011;53349;53.538;8.584;2023-02-14T07:21:53;45.67;;;14.57;;
66521;SDS011;53349;53.538;8.584;2023-02-14T07:24:20;52.08;;;15.15;;
66521;SDS011;53349;53.538;8.584;2023-02-14T07:26:45;50.77;;;15.17;;
66521;SDS011;53349;53.538;8.584;2023-02-14T07:29:15;55.30;;;15.82;;
66521;SDS011;53349;53.538;8.584;2023-02-14T07:31:41;48.70;;;13.93;;
66521;SDS011;53349;53.538;8.584;2023-02-14T07:34:06;52.60;;;16.03;;
66521;SDS011;53349;53.538;8.584;2023-02-14T07:36:32;49.28;;;14.82;;
66521;SDS011;53349;53.538;8.584;2023-02-14T07:38:59;53.23;;;15.47;;
66521;SDS011;53349;53.538;8.584;2023-02-14T07:41:28;49.25;;;14.48;;
66521;SDS011;53349;53.538;8.584;2023-02-14T07:43:53;48.70;;;14.65;;
66521;SDS011;53349;53.538;8.584;2023-02-14T07:46:20;45.72;;;12.77;;
66521;SDS011;53349;53.538;8.584;2023-02-14T07:48:45;50.67;;;14.90;;
66521;SDS011;53349;53.538;8.584;2023-02-14T07:51:10;49.70;;;14.60;;
66521;SDS011;53349;53.538;8.584;2023-02-14T07:53:38;45.25;;;13.98;;
66521;SDS011;53349;53.538;8.584;2023-02-14T07:56:04;49.55;;;14.60;;
66521;SDS011;53349;53.538;8.584;2023-02-14T07:58:30;49.07;;;14.83;;
66521;SDS011;53349;53.538;8.584;2023-02-14T08:00:55;47.20;;;14.10;;
66521;SDS011;53349;53.538;8.584;2023-02-14T08:03:21;44.50;;;14.18;;
66521;SDS011;53349;53.538;8.584;2023-02-14T08:05:49;46.37;;;14.40;;
66521;SDS011;53349;53.538;8.584;2023-02-14T08:08:14;41.92;;;12.73;;
66521;SDS011;53349;53.538;8.584;2023-02-14T08:10:39;47.73;;;13.87;;
66521;SDS011;53349;53.538;8.584;2023-02-14T08:13:05;51.67;;;14.43;;
66521;SDS011;53349;53.538;8.584;2023-02-14T08:15:34;44.70;;;13.30;;
66521;SDS011;53349;53.538;8.584;2023-02-14T08:17:59;49.37;;;15.10;;
66521;SDS011;53349;53.538;8.584;2023-02-14T08:20:24;42.90;;;13.47;;
66521;SDS011;53349;53.538;8.584;2023-02-14T08:22:54;42.55;;;13.30;;
66521;SDS011;53349;53.538;8.584;2023-02-14T08:25:19;43.53;;;13.27;;
66521;SDS011;53349;53.538;8.584;2023-02-14T08:27:46;44.57;;;13.67;;
66521;SDS011;53349;53.538;8.584;2023-02-14T08:30:11;41.00;;;13.02;;
66521;SDS011;53349;53.538;8.584;2023-02-14T08:32:38;46.03;;;13.13;;
66521;SDS011;53349;53.538;8.584;2023-02-14T08:35:04;43.63;;;12.68;;
66521;SDS011;53349;53.538;8.584;2023-02-14T08:37:40;39.65;;;13.05;;
66521;SDS011;53349;53.538;8.584;2023-02-14T08:40:06;35.93;;;12.40;;
66521;SDS011;53349;53.538;8.584;2023-02-14T08:42:32;43.97;;;13.50;;
66521;SDS011;53349;53.538;8.584;2023-02-14T08:44:59;34.33;;;12.23;;
66521;SDS011;53349;53.538;8.584;2023-02-14T08:47:24;36.65;;;12.45;;
66521;SDS011;53349;53.538;8.584;2023-02-14T08:49:51;35.33;;;12.63;;
66521;SDS011;53349;53.538;8.584;2023-02-14T08:52:16;33.23;;;12.13;;
66521;SDS011;53349;53.538;8.584;2023-02-14T08:54:44;34.45;;;12.50;;
66521;SDS011;53349;53.538;8.584;2023-02-14T08:57:10;35.27;;;12.10;;
66521;SDS011;53349;53.538;8.584;2023-02-14T08:59:36;31.97;;;11.73;;
66521;SDS011;53349;53.538;8.584;2023-02-14T09:02:01;30.45;;;10.57;;
66521;SDS011;53349;53.538;8.584;2023-02-14T09:04:27;32.63;;;12.30;;
66521;SDS011;53349;53.538;8.584;2023-02-14T09:06:56;30.10;;;10.82;;
66521;SDS011;53349;53.538;8.584;2023-02-14T09:09:21;33.97;;;11.13;;
66521;SDS011;53349;53.538;8.584;2023-02-14T09:11:47;33.80;;;11.87;;
66521;SDS011;53349;53.538;8.584;2023-02-14T09:14:13;32.28;;;11.90;;
66521;SDS011;53349;53.538;8.584;2023-02-14T09:16:38;28.77;;;11.20;;
66521;SDS011;53349;53.538;8.584;2023-02-14T09:19:09;28.55;;;10.57;;
66521;SDS011;53349;53.538;8.584;2023-02-14T09:21:37;31.77;;;11.23;;
66521;SDS011;53349;53.538;8.584;2023-02-14T09:24:04;27.50;;;11.10;;
66521;SDS011;53349;53.538;8.584;2023-02-14T09:26:33;27.15;;;11.32;;
66521;SDS011;53349;53.538;8.584;2023-02-14T09:28:59;26.52;;;10.30;;
66521;SDS011;53349;53.538;8.584;2023-02-14T09:31:24;24.33;;;10.20;;
66521;SDS011;53349;53.538;8.584;2023-02-14T09:33:50;24.80;;;10.00;;
66521;SDS011;53349;53.538;8.584;2023-02-14T09:36:15;25.45;;;10.50;;
66521;SDS011;53349;53.538;8.584;2023-02-14T09:38:41;23.63;;;9.97;;
66521;SDS011;53349;53.538;8.584;2023-02-14T09:41:07;26.87;;;10.47;;
66521;SDS011;53349;53.538;8.584;2023-02-14T09:43:35;24.88;;;10.63;;
66521;SDS011;53349;53.538;8.584;2023-02-14T09:46:10;28.92;;;11.35;;
66521;SDS011;53349;53.538;8.584;2023-02-14T09:48:41;24.45;;;10.32;;
66521;SDS011;53349;53.538;8.584;2023-02-14T09:51:10;26.70;;;10.43;;
66521;SDS011;53349;53.538;8.584;2023-02-14T09:53:45;22.25;;;9.90;;
66521;SDS011;53349;53.538;8.584;2023-02-14T09:56:18;22.45;;;9.50;;
66521;SDS011;53349;53.538;8.584;2023-02-14T10:01:35;23.92;;;10.10;;
66521;SDS011;53349;53.538;8.584;2023-02-14T10:04:28;24.30;;;10.45;;
66521;SDS011;53349;53.538;8.584;2023-02-14T10:07:00;21.65;;;9.93;;
66521;SDS011;53349;53.538;8.584;2023-02-14T10:12:54;21.77;;;10.02;;
66521;SDS011;53349;53.538;8.584;2023-02-14T10:15:25;25.60;;;11.05;;
66521;SDS011;53349;53.538;8.584;2023-02-14T10:18:17;24.00;;;10.82;;
66521;SDS011;53349;53.538;8.584;2023-02-14T10:20:59;23.50;;;10.23;;
66521;SDS011;53349;53.538;8.584;2023-02-14T10:23:34;21.60;;;9.63;;
66521;SDS011;53349;53.538;8.584;2023-02-14T10:26:09;22.88;;;9.95;;
66521;SDS011;53349;53.538;8.584;2023-02-14T10:28:58;19.88;;;9.15;;
66521;SDS011;53349;53.538;8.584;2023-02-14T10:31:44;23.35;;;10.05;;
66521;SDS011;53349;53.538;8.584;2023-02-14T10:34:15;23.27;;;10.18;;
66521;SDS011;53349;53.538;8.584;2023-02-14T10:48:48;23.90;;;10.45;;
66521;SDS011;53349;53.538;8.584;2023-02-14T10:51:34;22.43;;;10.23;;
66521;SDS011;53349;53.538;8.584;2023-02-14T10:56:45;22.20;;;10.10;;
66521;SDS011;53349;53.538;8.584;2023-02-14T10:59:19;20.25;;;10.02;;
66521;SDS011;53349;53.538;8.584;2023-02-14T11:01:49;23.40;;;10.45;;
66521;SDS011;53349;53.538;8.584;2023-02-14T11:04:17;21.07;;;9.80;;
66521;SDS011;53349;53.538;8.584;2023-02-14T11:06:45;23.85;;;11.02;;
66521;SDS011;53349;53.538;8.584;2023-02-14T11:09:13;23.30;;;11.00;;
66521;SDS011;53349;53.538;8.584;2023-02-14T11:11:42;23.90;;;11.10;;
66521;SDS011;53349;53.538;8.584;2023-02-14T11:14:27;22.42;;;10.82;;
66521;SDS011;53349;53.538;8.584;2023-02-14T11:16:53;22.37;;;10.40;;
66521;SDS011;53349;53.538;8.584;2023-02-14T11:21:53;21.10;;;10.38;;
66521;SDS011;53349;53.538;8.584;2023-02-14T11:26:49;23.05;;;10.88;;
66521;SDS011;53349;53.538;8.584;2023-02-14T11:29:18;27.33;;;11.57;;
66521;SDS011;53349;53.538;8.584;2023-02-14T11:31:56;24.27;;;10.82;;
66521;SDS011;53349;53.538;8.584;2023-02-14T11:36:58;21.95;;;10.45;;
66521;SDS011;53349;53.538;8.584;2023-02-14T11:42:00;23.05;;;10.77;;
66521;SDS011;53349;53.538;8.584;2023-02-14T11:44:27;23.58;;;11.68;;
66521;SDS011;53349;53.538;8.584;2023-02-14T11:46:55;22.27;;;10.50;;
66521;SDS011;53349;53.538;8.584;2023-02-14T11:49:26;21.15;;;9.90;;
66521;SDS011;53349;53.538;8.584;2023-02-14T11:51:55;22.88;;;10.73;;
66521;SDS011;53349;53.538;8.584;2023-02-14T11:54:36;22.42;;;10.52;;
66521;SDS011;53349;53.538;8.584;2023-02-14T11:57:11;23.77;;;10.20;;
66521;SDS011;53349;53.538;8.584;2023-02-14T11:59:44;22.10;;;10.75;;
66521;SDS011;53349;53.538;8.584;2023-02-14T12:02:23;22.65;;;9.88;;
66521;SDS011;53349;53.538;8.584;2023-02-14T12:05:15;20.90;;;10.32;;
66521;SDS011;53349;53.538;8.584;2023-02-14T12:07:51;24.08;;;10.52;;
66521;SDS011;53349;53.538;8.584;2023-02-14T12:10:36;25.38;;;10.65;;
66521;SDS011;53349;53.538;8.584;2023-02-14T12:21:15;20.35;;;9.65;;
66521;SDS011;53349;53.538;8.584;2023-02-14T12:23:44;22.90;;;10.07;;
66521;SDS011;53349;53.538;8.584;2023-02-14T12:26:18;20.13;;;9.40;;
66521;SDS011;53349;53.538;8.584;2023-02-14T12:31:39;20.05;;;9.80;;
66521;SDS011;53349;53.538;8.584;2023-02-14T12:34:05;19.52;;;8.95;;
66521;SDS011;53349;53.538;8.584;2023-02-14T12:42:31;19.10;;;8.82;;
66521;SDS011;53349;53.538;8.584;2023-02-14T12:48:07;19.65;;;8.95;;
66521;SDS011;53349;53.538;8.584;2023-02-14T12:50:52;18.38;;;8.43;;
66521;SDS011;53349;53.538;8.584;2023-02-14T12:56:24;21.38;;;9.35;;
66521;SDS011;53349;53.538;8.584;2023-02-14T13:02:04;20.25;;;8.68;;
66521;SDS011;53349;53.538;8.584;2023-02-14T13:10:07;19.63;;;9.35;;
66521;SDS011;53349;53.538;8.584;2023-02-14T13:12:50;18.17;;;9.20;;
66521;SDS011;53349;53.538;8.584;2023-02-14T13:15:40;18.30;;;8.50;;
66521;SDS011;53349;53.538;8.584;2023-02-14T13:18:34;16.90;;;8.02;;
66521;SDS011;53349;53.538;8.584;2023-02-14T13:21:12;16.73;;;7.75;;
66521;SDS011;53349;53.538;8.584;2023-02-14T13:23:41;19.60;;;9.35;;
66521;SDS011;53349;53.538;8.584;2023-02-14T13:28:38;16.05;;;8.55;;
66521;SDS011;53349;53.538;8.584;2023-02-14T13:31:11;17.42;;;8.07;;
66521;SDS011;53349;53.538;8.584;2023-02-14T13:33:39;18.23;;;8.38;;
66521;SDS011;53349;53.538;8.584;2023-02-14T13:36:10;17.55;;;8.35;;
66521;SDS011;53349;53.538;8.584;2023-02-14T13:38:39;19.40;;;9.43;;
66521;SDS011;53349;53.538;8.584;2023-02-14T13:41:08;19.45;;;8.98;;
66521;SDS011;53349;53.538;8.584;2023-02-14T13:46:43;17.95;;;8.20;;
66521;SDS011;53349;53.538;8.584;2023-02-14T13:49:20;18.95;;;8.93;;
66521;SDS011;53349;53.538;8.584;2023-02-14T13:51:51;20.65;;;8.65;;
66521;SDS011;53349;53.538;8.584;2023-02-14T13:54:19;17.10;;;8.63;;
66521;SDS011;53349;53.538;8.584;2023-02-14T13:56:45;19.17;;;9.10;;
66521;SDS011;53349;53.538;8.584;2023-02-14T13:59:22;19.20;;;9.33;;
66521;SDS011;53349;53.538;8.584;2023-02-14T14:01:50;18.35;;;8.45;;
66521;SDS011;53349;53.538;8.584;2023-02-14T14:19:58;19.80;;;9.05;;
66521;SDS011;53349;53.538;8.584;2023-02-14T14:22:24;20.63;;;9.32;;
66521;SDS011;53349;53.538;8.584;2023-02-14T14:25:00;19.38;;;8.85;;
66521;SDS011;53349;53.538;8.584;2023-02-14T14:27:39;18.85;;;9.32;;
66521;SDS011;53349;53.538;8.584;2023-02-14T14:30:21;21.67;;;8.77;;
66521;SDS011;53349;53.538;8.584;2023-02-14T14:32:50;19.52;;;9.05;;
66521;SDS011;53349;53.538;8.584;2023-02-14T14:37:46;21.02;;;9.25;;
66521;SDS011;53349;53.538;8.584;2023-02-14T14:40:26;21.48;;;9.70;;
66521;SDS011;53349;53.538;8.584;2023-02-14T14:42:59;19.38;;;9.07;;
66521;SDS011;53349;53.538;8.584;2023-02-14T14:45:48;21.90;;;9.32;;
66521;SDS011;53349;53.538;8.584;2023-02-14T14:48:18;21.23;;;9.32;;
66521;SDS011;53349;53.538;8.584;2023-02-14T14:50:52;18.27;;;8.40;;
66521;SDS011;53349;53.538;8.584;2023-02-14T14:55:53;19.30;;;8.30;;
66521;SDS011;53349;53.538;8.584;2023-02-14T15:04:07;18.50;;;8.07;;
66521;SDS011;53349;53.538;8.584;2023-02-14T15:06:39;17.65;;;8.35;;
66521;SDS011;53349;53.538;8.584;2023-02-14T15:09:21;18.25;;;8.52;;
66521;SDS011;53349;53.538;8.584;2023-02-14T15:11:53;21.92;;;9.13;;
66521;SDS011;53349;53.538;8.584;2023-02-14T15:14:19;18.77;;;8.13;;
66521;SDS011;53349;53.538;8.584;2023-02-14T15:16:47;18.42;;;8.60;;
66521;SDS011;53349;53.538;8.584;2023-02-14T15:19:29;20.33;;;9.07;;
66521;SDS011;53349;53.538;8.584;2023-02-14T15:21:57;21.70;;;8.77;;
66521;SDS011;53349;53.538;8.584;2023-02-14T15:24:26;17.70;;;7.70;;
66521;SDS011;53349;53.538;8.584;2023-02-14T15:26:52;20.33;;;8.43;;
66521;SDS011;53349;53.538;8.584;2023-02-14T15:31:54;19.70;;;8.68;;
66521;SDS011;53349;53.538;8.584;2023-02-14T15:34:23;16.10;;;7.72;;
66521;SDS011;53349;53.538;8.584;2023-02-14T15:36:54;16.58;;;8.07;;
66521;SDS011;53349;53.538;8.584;2023-02-14T15:39:21;17.70;;;7.67;;
66521;SDS011;53349;53.538;8.584;2023-02-14T15:41:53;20.00;;;8.18;;
66521;SDS011;53349;53.538;8.584;2023-02-14T15:44:22;27.52;;;12.98;;
66521;SDS011;53349;53.538;8.584;2023-02-14T15:46:52;40.25;;;18.50;;
66521;SDS011;53349;53.538;8.584;2023-02-14T15:49:20;24.73;;;10.70;;
66521;SDS011;53349;53.538;8.584;2023-02-14T15:51:53;19.17;;;8.07;;
66521;SDS011;53349;53.538;8.584;2023-02-14T15:54:22;20.95;;;9.30;;
66521;SDS011;53349;53.538;8.584;2023-02-14T15:56:54;19.42;;;8.75;;
66521;SDS011;53349;53.538;8.584;2023-02-14T15:59:21;20.10;;;8.30;;
66521;SDS011;53349;53.538;8.584;2023-02-14T16:01:52;20.00;;;8.50;;
66521;SDS011;53349;53.538;8.584;2023-02-14T16:04:25;20.00;;;7.97;;
66521;SDS011;53349;53.538;8.584;2023-02-14T16:07:03;17.80;;;7.95;;
66521;SDS011;53349;53.538;8.584;2023-02-14T16:09:43;18.90;;;8.10;;
66521;SDS011;53349;53.538;8.584;2023-02-14T16:17:41;23.00;;;9.02;;
66521;SDS011;53349;53.538;8.584;2023-02-14T16:22:45;22.27;;;10.40;;
66521;SDS011;53349;53.538;8.584;2023-02-14T16:25:10;20.05;;;9.25;;
66521;SDS011;53349;53.538;8.584;2023-02-14T16:27:37;21.20;;;9.63;;
66521;SDS011;53349;53.538;8.584;2023-02-14T16:30:06;21.13;;;9.05;;
66521;SDS011;53349;53.538;8.584;2023-02-14T16:32:32;19.63;;;9.07;;
66521;SDS011;53349;53.538;8.584;2023-02-14T16:34:57;20.55;;;8.85;;
66521;SDS011;53349;53.538;8.584;2023-02-14T16:37:30;20.48;;;8.90;;
66521;SDS011;53349;53.538;8.584;2023-02-14T16:39:56;24.15;;;10.35;;
66521;SDS011;53349;53.538;8.584;2023-02-14T16:42:26;19.55;;;8.50;;
66521;SDS011;53349;53.538;8.584;2023-02-14T16:44:54;22.05;;;9.18;;
66521;SDS011;53349;53.538;8.584;2023-02-14T16:47:21;21.17;;;9.70;;
66521;SDS011;53349;53.538;8.584;2023-02-14T16:49:47;20.25;;;8.88;;
66521;SDS011;53349;53.538;8.584;2023-02-14T16:52:13;20.23;;;9.23;;
66521;SDS011;53349;53.538;8.584;2023-02-14T16:54:44;21.95;;;9.75;;
66521;SDS011;53349;53.538;8.584;2023-02-14T16:57:12;19.17;;;9.03;;
66521;SDS011;53349;53.538;8.584;2023-02-14T16:59:44;21.10;;;9.57;;
66521;SDS011;53349;53.538;8.584;2023-02-14T17:02:09;22.52;;;9.52;;
66521;SDS011;53349;53.538;8.584;2023-02-14T17:04:35;19.43;;;8.93;;